createdAt,value
2024-03-24T00:00:45.428Z,82.8595
2024-03-24T00:01:50.321Z,83.0762
2024-03-24T00:02:55.106Z,83.1403
2024-03-24T00:04:00.033Z,83.0213
2024-03-24T00:05:04.884Z,82.9068
2024-03-24T00:06:09.666Z,82.7176
2024-03-24T00:07:14.530Z,82.6078
2024-03-24T00:08:19.309Z,82.4338
2024-03-24T00:09:24.205Z,82.1927
2024-03-24T00:10:29.246Z,82.3102
2024-03-24T00:11:33.999Z,82.3285
2024-03-24T00:12:38.778Z,82.1424
2024-03-24T00:13:43.656Z,82.0127
2024-03-24T00:14:48.511Z,82.1424
2024-03-24T00:15:53.254Z,82.1469
2024-03-24T00:16:58.049Z,82.1881
2024-03-24T00:18:02.862Z,82.1195
2024-03-24T00:19:07.748Z,81.8158
2024-03-24T00:20:12.513Z,81.7014
2024-03-24T00:21:17.444Z,81.6602
2024-03-24T00:22:22.391Z,81.9913
2024-03-24T00:23:27.161Z,81.6571
2024-03-24T00:24:31.931Z,81.5503
2024-03-24T00:25:36.745Z,81.0574
2024-03-24T00:26:41.523Z,80.8591
2024-03-24T00:27:46.359Z,80.6226
2024-03-24T00:28:51.197Z,80.6226
2024-03-24T00:29:55.989Z,81.0849
2024-03-24T00:31:00.840Z,81.1292
2024-03-24T00:32:05.738Z,81.2772
2024-03-24T00:33:10.703Z,81.1170
2024-03-24T00:34:15.667Z,80.9476
2024-03-24T00:35:20.416Z,80.5722
2024-03-24T00:36:25.277Z,80.5066
2024-03-24T00:37:30.224Z,80.3052
2024-03-24T00:38:35.206Z,80.4349
2024-03-24T00:39:42.501Z,80.6912
2024-03-24T00:40:50.702Z,80.4974
2024-03-24T00:41:55.515Z,80.8103
2024-03-24T00:43:00.480Z,80.7095
2024-03-24T00:44:05.391Z,80.7599
2024-03-24T00:45:10.167Z,80.8362
2024-03-24T00:46:15.027Z,81.2177
2024-03-24T00:47:19.974Z,81.4313
2024-03-24T00:48:24.736Z,81.4908
2024-03-24T00:49:29.621Z,81.7563
2024-03-24T00:50:34.550Z,81.4725
2024-03-24T00:51:39.309Z,81.3718
2024-03-24T00:52:44.133Z,81.2299
2024-03-24T00:53:48.922Z,81.1444
2024-03-24T00:54:53.740Z,81.1032
2024-03-24T00:55:58.494Z,81.2222
2024-03-24T00:57:03.331Z,81.0254
2024-03-24T00:58:08.136Z,81.1124
2024-03-24T00:59:12.933Z,81.2665
2024-03-24T01:00:17.734Z,81.5473
2024-03-24T01:01:22.512Z,81.7380
2024-03-24T01:02:27.320Z,81.9806
2024-03-24T01:03:32.107Z,82.0188
2024-03-24T01:04:36.858Z,82.1042
2024-03-24T01:05:41.736Z,82.1546
2024-03-24T01:06:46.675Z,82.2339
2024-03-24T01:07:51.460Z,82.2019
2024-03-24T01:08:56.304Z,82.3331
2024-03-24T01:10:01.076Z,82.2736
2024-03-24T01:11:05.896Z,82.4201
2024-03-24T01:12:10.855Z,82.4750
2024-03-24T01:13:15.610Z,82.4399
2024-03-24T01:14:20.464Z,82.6627
2024-03-24T01:15:25.278Z,82.8519
2024-03-24T01:16:30.053Z,82.9801
2024-03-24T01:17:34.847Z,83.2029
2024-03-24T01:18:39.668Z,83.3860
2024-03-24T01:19:44.463Z,83.2944
2024-03-24T01:20:49.317Z,83.4333
2024-03-24T01:21:54.238Z,83.4180
2024-03-24T01:22:58.978Z,83.6194
2024-03-24T01:24:03.854Z,83.6851
2024-03-24T01:25:08.822Z,83.9277
2024-03-24T01:26:13.557Z,83.9857
2024-03-24T01:27:18.382Z,83.9307
2024-03-24T01:28:23.341Z,84.0864
2024-03-24T01:29:28.256Z,84.1962
2024-03-24T01:30:33.029Z,84.2466
2024-03-24T01:31:37.894Z,84.3153
2024-03-24T01:32:42.698Z,84.3381
2024-03-24T01:33:47.499Z,84.2756
2024-03-24T01:34:52.292Z,84.1962
2024-03-24T01:35:57.108Z,84.2847
2024-03-24T01:37:02.081Z,84.2939
2024-03-24T01:38:07.028Z,84.5441
2024-03-24T01:39:11.961Z,84.8646
2024-03-24T01:40:16.735Z,85.0996
2024-03-24T01:41:21.605Z,85.2781
2024-03-24T01:42:26.507Z,85.3605
2024-03-24T01:43:31.305Z,85.3178
2024-03-24T01:44:36.067Z,85.4795
2024-03-24T01:45:40.878Z,85.6123
2024-03-24T01:46:45.744Z,85.4749
2024-03-24T01:47:50.520Z,85.5604
2024-03-24T01:48:55.335Z,85.7221
2024-03-24T01:50:00.232Z,85.8488
2024-03-24T01:51:04.947Z,86.0365
2024-03-24T01:52:09.922Z,86.2440
2024-03-24T01:53:14.853Z,86.5003
2024-03-24T01:54:19.637Z,86.6316
2024-03-24T01:55:24.472Z,86.6834
2024-03-24T01:56:29.283Z,86.8025
2024-03-24T01:57:34.105Z,86.9795
2024-03-24T01:58:38.886Z,87.1550
2024-03-24T01:59:43.668Z,87.3106
2024-03-24T02:00:48.590Z,87.3930
2024-03-24T02:01:53.586Z,87.3823
2024-03-24T02:02:58.520Z,87.4022
2024-03-24T02:04:03.465Z,87.4281
2024-03-24T02:05:08.416Z,87.4327
2024-03-24T02:06:13.199Z,87.5257
2024-03-24T02:07:18.009Z,87.6219
2024-03-24T02:08:22.993Z,87.8309
2024-03-24T02:09:27.958Z,87.8599
2024-03-24T02:10:32.692Z,87.9591
2024-03-24T02:11:37.526Z,88.1056
2024-03-24T02:12:42.499Z,88.2307
2024-03-24T02:13:47.476Z,88.3177
2024-03-24T02:14:52.404Z,88.4535
2024-03-24T02:15:57.201Z,88.4367
2024-03-24T02:17:02.006Z,88.4001
2024-03-24T02:18:07.010Z,88.4230
2024-03-24T02:19:11.827Z,88.5649
2024-03-24T02:20:16.646Z,88.5817
2024-03-24T02:21:21.526Z,88.6320
2024-03-24T02:22:26.288Z,88.6778
2024-03-24T02:23:31.137Z,88.7602
2024-03-24T02:24:36.087Z,88.8670
2024-03-24T02:25:40.874Z,88.9525
2024-03-24T02:26:45.710Z,89.0257
2024-03-24T02:27:50.677Z,89.1188
2024-03-24T02:28:55.548Z,89.1783
2024-03-24T02:30:00.313Z,89.2775
2024-03-24T02:31:05.204Z,89.3370
2024-03-24T02:32:10.114Z,89.3889
2024-03-24T02:33:14.920Z,89.4163
2024-03-24T02:34:19.788Z,89.5491
2024-03-24T02:35:24.674Z,89.6620
2024-03-24T02:36:29.447Z,89.7765
2024-03-24T02:37:34.376Z,89.8543
2024-03-24T02:38:39.124Z,89.8634
2024-03-24T02:39:43.939Z,89.9474
2024-03-24T02:40:49.216Z,90.0343
2024-03-24T02:41:54.053Z,90.1625
2024-03-24T02:42:58.861Z,90.2525
2024-03-24T02:44:03.795Z,90.3395
2024-03-24T02:45:08.755Z,90.3624
2024-03-24T02:46:13.780Z,90.3853
2024-03-24T02:47:18.534Z,90.4051
2024-03-24T02:48:23.296Z,90.4509
2024-03-24T02:49:28.250Z,90.5226
2024-03-24T02:50:33.039Z,90.5745
2024-03-24T02:51:37.855Z,90.6050
2024-03-24T02:52:42.823Z,90.6981
2024-03-24T02:53:47.787Z,90.7423
2024-03-24T02:54:52.719Z,90.7759
2024-03-24T02:55:57.507Z,90.7942
2024-03-24T02:57:02.392Z,90.8476
2024-03-24T02:58:07.360Z,90.8354
2024-03-24T02:59:12.093Z,90.8522
2024-03-24T03:00:16.887Z,90.8721
2024-03-24T03:01:21.857Z,90.9072
2024-03-24T03:02:26.604Z,90.9545
2024-03-24T03:03:31.450Z,91.0079
2024-03-24T03:04:36.215Z,91.0582
2024-03-24T03:05:41.053Z,91.0689
2024-03-24T03:06:45.846Z,91.0689
2024-03-24T03:07:50.659Z,91.0964
2024-03-24T03:08:55.624Z,91.0536
2024-03-24T03:10:00.576Z,91.0643
2024-03-24T03:11:05.502Z,91.0552
2024-03-24T03:12:10.269Z,91.1406
2024-03-24T03:13:15.177Z,91.1650
2024-03-24T03:14:20.075Z,91.1513
2024-03-24T03:15:24.846Z,91.1513
2024-03-24T03:16:29.700Z,91.1406
2024-03-24T03:17:34.644Z,91.0353
2024-03-24T03:18:39.447Z,90.9255
2024-03-24T03:19:44.255Z,90.8522
2024-03-24T03:20:49.200Z,90.8217
2024-03-24T03:21:54.003Z,90.8354
2024-03-24T03:22:58.822Z,90.7942
2024-03-24T03:24:03.607Z,90.8263
2024-03-24T03:25:08.463Z,90.9499
2024-03-24T03:26:13.384Z,90.8904
2024-03-24T03:27:18.323Z,90.8904
2024-03-24T03:28:23.073Z,90.7881
2024-03-24T03:29:27.946Z,90.7973
2024-03-24T03:30:32.869Z,90.8156
2024-03-24T03:31:37.654Z,90.8583
2024-03-24T03:32:42.509Z,90.8980
2024-03-24T03:33:47.445Z,90.9316
2024-03-24T03:34:52.193Z,90.9941
2024-03-24T03:35:57.084Z,91.0506
2024-03-24T03:37:02.003Z,91.0719
2024-03-24T03:38:06.771Z,91.1681
2024-03-24T03:39:11.614Z,91.2703
2024-03-24T03:40:16.557Z,91.3527
2024-03-24T03:41:21.304Z,91.4244
2024-03-24T03:42:26.192Z,91.5450
2024-03-24T03:43:31.114Z,91.5862
2024-03-24T03:44:35.881Z,91.6182
2024-03-24T03:45:40.876Z,91.6640
2024-03-24T03:46:45.689Z,91.6899
2024-03-24T03:47:50.457Z,91.7632
2024-03-24T03:48:55.627Z,91.8044
2024-03-24T03:50:00.591Z,91.8288
2024-03-24T03:51:05.541Z,91.8822
2024-03-24T03:52:10.545Z,91.9020
2024-03-24T03:53:15.465Z,91.8929
2024-03-24T03:54:20.393Z,91.9829
2024-03-24T03:55:25.187Z,91.9707
2024-03-24T03:56:30.075Z,91.9936
2024-03-24T03:57:34.887Z,92.0027
2024-03-24T03:58:39.679Z,92.0439
2024-03-24T03:59:44.555Z,92.0516
2024-03-24T04:00:49.503Z,92.0623
2024-03-24T04:01:54.306Z,92.0760
2024-03-24T04:02:59.137Z,92.0058
2024-03-24T04:04:04.007Z,92.0241
2024-03-24T04:05:08.813Z,92.0104
2024-03-24T04:06:13.685Z,92.0027
2024-03-24T04:07:18.609Z,91.9707
2024-03-24T04:08:23.451Z,91.9738
2024-03-24T04:09:28.254Z,92.0058
2024-03-24T04:10:33.148Z,92.0058
2024-03-24T04:11:37.977Z,92.0211
2024-03-24T04:12:42.708Z,92.0882
2024-03-24T04:13:47.547Z,92.0806
2024-03-24T04:14:52.454Z,92.1248
2024-03-24T04:15:57.372Z,92.1065
2024-03-24T04:17:02.294Z,92.1065
2024-03-24T04:18:07.079Z,92.0851
2024-03-24T04:19:11.941Z,92.0562
2024-03-24T04:20:16.854Z,92.0211
2024-03-24T04:21:21.677Z,92.0470
2024-03-24T04:22:26.523Z,92.0027
2024-03-24T04:23:31.403Z,91.9570
2024-03-24T04:24:36.199Z,91.9570
2024-03-24T04:25:41.000Z,91.9295
2024-03-24T04:26:45.969Z,91.8792
2024-03-24T04:27:50.764Z,91.8364
2024-03-24T04:28:55.628Z,91.8334
2024-03-24T04:30:00.510Z,91.8517
2024-03-24T04:31:05.376Z,91.8730
2024-03-24T04:32:10.151Z,91.8837
2024-03-24T04:33:15.084Z,91.8593
2024-03-24T04:34:19.867Z,91.8654
2024-03-24T04:35:24.780Z,91.8288
2024-03-24T04:36:29.627Z,91.9051
2024-03-24T04:37:34.405Z,91.8929
2024-03-24T04:38:39.296Z,91.9188
2024-03-24T04:39:44.218Z,91.9326
2024-03-24T04:40:49.226Z,91.9844
2024-03-24T04:41:54.187Z,91.9921
2024-03-24T04:42:58.966Z,92.0653
2024-03-24T04:44:03.778Z,92.0241
2024-03-24T04:45:08.568Z,92.0348
2024-03-24T04:46:13.396Z,92.0058
2024-03-24T04:47:18.344Z,92.0745
2024-03-24T04:48:23.314Z,92.0623
2024-03-24T04:49:28.269Z,92.1355
2024-03-24T04:50:33.051Z,92.1248
2024-03-24T04:51:37.864Z,92.1797
2024-03-24T04:52:45.459Z,92.2209
2024-03-24T04:53:50.645Z,92.2637
2024-03-24T04:54:55.696Z,92.3323
2024-03-24T04:56:00.587Z,92.3354
2024-03-24T04:57:05.537Z,92.3857
2024-03-24T04:58:10.317Z,92.3461
2024-03-24T04:59:15.141Z,92.3644
2024-03-24T05:00:20.131Z,92.3644
2024-03-24T05:01:25.066Z,92.4010
2024-03-24T05:02:30.055Z,92.4361
2024-03-24T05:03:35.004Z,92.4178
2024-03-24T05:04:39.944Z,92.4010
2024-03-24T05:05:44.845Z,92.4041
2024-03-24T05:06:49.659Z,92.3644
2024-03-24T05:07:54.505Z,92.4224
2024-03-24T05:08:59.438Z,92.3995
2024-03-24T05:10:04.229Z,92.4636
2024-03-24T05:11:09.076Z,92.5338
2024-03-24T05:12:13.998Z,92.5780
2024-03-24T05:13:18.782Z,92.5887
2024-03-24T05:14:23.642Z,92.5826
2024-03-24T05:15:28.513Z,92.6604
2024-03-24T05:16:33.290Z,92.6879
2024-03-24T05:17:38.214Z,92.7169
2024-03-24T05:18:43.033Z,92.7443
2024-03-24T05:19:47.828Z,92.7840
2024-03-24T05:20:52.766Z,92.7565
2024-03-24T05:21:57.663Z,92.8344
2024-03-24T05:23:02.495Z,92.8618
2024-03-24T05:24:07.250Z,92.8267
2024-03-24T05:25:12.064Z,92.8252
2024-03-24T05:26:16.928Z,92.9137
2024-03-24T05:27:21.889Z,92.8985
2024-03-24T05:28:27.093Z,92.9091
2024-03-24T05:29:35.233Z,92.9549
2024-03-24T05:30:40.025Z,92.9076
2024-03-24T05:31:44.964Z,92.9412
2024-03-24T05:32:49.886Z,92.9809
2024-03-24T05:33:54.859Z,92.9900
2024-03-24T05:34:59.817Z,92.9992
2024-03-24T05:36:04.597Z,93.0144
2024-03-24T05:37:09.402Z,93.0327
2024-03-24T05:38:14.211Z,93.0083
2024-03-24T05:39:18.999Z,93.0190
2024-03-24T05:40:23.990Z,93.0358
2024-03-24T05:41:28.935Z,93.0373
2024-03-24T05:42:33.708Z,93.0495
2024-03-24T05:43:38.510Z,93.0083
2024-03-24T05:44:43.318Z,93.0587
2024-03-24T05:45:48.108Z,93.0236
2024-03-24T05:46:52.909Z,93.0236
2024-03-24T05:47:57.722Z,93.0495
2024-03-24T05:49:02.520Z,93.0007
2024-03-24T05:50:07.325Z,93.0175
2024-03-24T05:51:12.279Z,93.0831
2024-03-24T05:52:19.027Z,93.0541
2024-03-24T05:53:24.978Z,93.0587
2024-03-24T05:54:29.732Z,93.0816
2024-03-24T05:55:34.636Z,93.0236
2024-03-24T05:56:39.413Z,93.0144
2024-03-24T05:57:44.303Z,93.0220
2024-03-24T05:58:49.157Z,93.0220
2024-03-24T05:59:53.942Z,93.0175
2024-03-24T06:00:58.823Z,93.0358
2024-03-24T06:02:03.785Z,92.9641
2024-03-24T06:03:08.546Z,92.9763
2024-03-24T06:04:13.449Z,93.0037
2024-03-24T06:05:18.306Z,92.9137
2024-03-24T06:06:23.087Z,92.9122
2024-03-24T06:07:27.955Z,92.8893
2024-03-24T06:08:32.870Z,92.8496
2024-03-24T06:09:37.653Z,92.8252
2024-03-24T06:10:42.548Z,92.7932
2024-03-24T06:11:47.419Z,92.7352
2024-03-24T06:12:52.187Z,92.6482
2024-03-24T06:13:57.084Z,92.6101
2024-03-24T06:15:01.903Z,92.6055
2024-03-24T06:16:06.670Z,92.5475
2024-03-24T06:17:11.456Z,92.4376
2024-03-24T06:18:16.307Z,92.3781
2024-03-24T06:19:21.110Z,92.3278
2024-03-24T06:20:25.905Z,92.2438
2024-03-24T06:21:30.671Z,92.2316
2024-03-24T06:22:35.486Z,92.1721
2024-03-24T06:23:40.439Z,92.1630
2024-03-24T06:24:45.351Z,92.1263
2024-03-24T06:25:50.139Z,92.0165
2024-03-24T06:26:55.003Z,91.9295
2024-03-24T06:27:59.926Z,91.7815
2024-03-24T06:29:04.745Z,91.5892
2024-03-24T06:30:09.565Z,91.4519
2024-03-24T06:31:14.463Z,91.2825
2024-03-24T06:32:19.267Z,91.1879
2024-03-24T06:33:24.144Z,90.9712
2024-03-24T06:34:29.083Z,90.8156
2024-03-24T06:35:33.835Z,90.6691
2024-03-24T06:36:38.695Z,90.5928
2024-03-24T06:37:43.476Z,90.3990
2024-03-24T06:38:48.285Z,90.2342
2024-03-24T06:39:53.248Z,90.1701
2024-03-24T06:40:58.034Z,90.1472
2024-03-24T06:42:02.835Z,90.1579
2024-03-24T06:43:07.664Z,90.0420
2024-03-24T06:44:12.454Z,89.9550
2024-03-24T06:45:17.407Z,89.8466
2024-03-24T06:46:22.370Z,89.7459
2024-03-24T06:47:27.293Z,89.5949
2024-03-24T06:48:32.091Z,89.4514
2024-03-24T06:49:36.921Z,89.3065
2024-03-24T06:50:41.828Z,89.2607
2024-03-24T06:51:46.660Z,89.0089
2024-03-24T06:52:51.480Z,88.8441
2024-03-24T06:53:56.375Z,88.8746
2024-03-24T06:55:01.182Z,88.7694
2024-03-24T06:56:06.038Z,88.7663
2024-03-24T06:57:10.998Z,88.8472
2024-03-24T06:58:15.821Z,88.8197
2024-03-24T06:59:20.594Z,88.7144
2024-03-24T07:00:25.403Z,88.5969
2024-03-24T07:01:30.199Z,88.5908
2024-03-24T07:02:35.168Z,88.5954
2024-03-24T07:03:40.130Z,88.5603
2024-03-24T07:04:45.092Z,88.6107
2024-03-24T07:05:50.061Z,88.6595
2024-03-24T07:06:55.009Z,88.7098
2024-03-24T07:07:59.969Z,88.6778
2024-03-24T07:09:04.934Z,88.7297
2024-03-24T07:10:09.867Z,88.6885
2024-03-24T07:11:14.641Z,88.4993
2024-03-24T07:12:19.492Z,88.5054
2024-03-24T07:13:24.498Z,88.5237
2024-03-24T07:14:29.215Z,88.4672
2024-03-24T07:15:34.055Z,88.3223
2024-03-24T07:16:38.961Z,88.1560
2024-03-24T07:17:43.736Z,88.0140
2024-03-24T07:18:48.610Z,87.7775
2024-03-24T07:19:53.546Z,87.5471
2024-03-24T07:20:58.306Z,87.3976
2024-03-24T07:22:03.136Z,86.9337
2024-03-24T07:23:08.086Z,86.7338
2024-03-24T07:24:12.862Z,86.4363
2024-03-24T07:25:17.657Z,86.1799
2024-03-24T07:26:24.921Z,85.9556
2024-03-24T07:27:30.230Z,85.6443
2024-03-24T07:28:34.976Z,85.4154
2024-03-24T07:29:39.840Z,85.3101
2024-03-24T07:30:44.789Z,85.1942
2024-03-24T07:31:49.726Z,85.1118
2024-03-24T07:32:54.517Z,85.0767
2024-03-24T07:33:59.337Z,85.1530
2024-03-24T07:35:04.289Z,84.9149
2024-03-24T07:36:09.233Z,84.9073
2024-03-24T07:37:14.023Z,84.9241
2024-03-24T07:38:18.844Z,84.8661
2024-03-24T07:39:23.822Z,84.8096
2024-03-24T07:40:28.767Z,84.4999
2024-03-24T07:41:33.748Z,83.8254
2024-03-24T07:42:39.784Z,83.5142
2024-03-24T07:43:45.546Z,83.2807
2024-03-24T07:44:50.351Z,82.8275
2024-03-24T07:45:55.158Z,82.6047
2024-03-24T07:46:59.922Z,82.6169
2024-03-24T07:48:04.764Z,82.6398
2024-03-24T07:49:09.714Z,82.4903
2024-03-24T07:50:14.481Z,82.5895
2024-03-24T07:51:19.342Z,82.5711
2024-03-24T07:52:24.279Z,82.4842
2024-03-24T07:53:29.027Z,82.6993
2024-03-24T07:54:33.910Z,82.9755
2024-03-24T07:55:38.824Z,82.8733
2024-03-24T07:56:43.589Z,82.6719
2024-03-24T07:57:48.442Z,82.3255
2024-03-24T07:58:53.382Z,82.0508
2024-03-24T07:59:58.266Z,81.9669
2024-03-24T08:01:03.063Z,81.9821
2024-03-24T08:02:07.942Z,81.9669
2024-03-24T08:03:12.843Z,81.8082
2024-03-24T08:04:17.696Z,81.8311
2024-03-24T08:05:22.516Z,82.1134
2024-03-24T08:06:27.412Z,82.1103
2024-03-24T08:07:32.260Z,81.5656
2024-03-24T08:08:37.055Z,81.1490
2024-03-24T08:09:41.846Z,80.7141
2024-03-24T08:10:46.695Z,79.7528
2024-03-24T08:11:51.622Z,78.7991
2024-03-24T08:12:56.405Z,78.1506
2024-03-24T08:14:01.230Z,77.8927
2024-03-24T08:15:06.190Z,77.6654
2024-03-24T08:16:10.956Z,77.3037
2024-03-24T08:17:15.773Z,77.0520
2024-03-24T08:18:20.758Z,76.9604
2024-03-24T08:19:25.565Z,76.9635
2024-03-24T08:20:30.437Z,77.7432
2024-03-24T08:21:35.328Z,77.5601
2024-03-24T08:22:40.120Z,76.9924
2024-03-24T08:23:44.935Z,76.3729
2024-03-24T08:24:49.885Z,76.2646
2024-03-24T08:25:54.712Z,76.4462
2024-03-24T08:26:59.470Z,76.4599
2024-03-24T08:28:04.429Z,76.6979
2024-03-24T08:29:09.206Z,76.8872
2024-03-24T08:30:14.036Z,76.3241
2024-03-24T08:31:18.991Z,75.4131
2024-03-24T08:32:23.957Z,75.0927
2024-03-24T08:33:28.738Z,74.2565
2024-03-24T08:34:33.557Z,73.4554
2024-03-24T08:35:38.480Z,73.1807
2024-03-24T08:36:43.273Z,72.6192
2024-03-24T08:37:48.114Z,72.2072
2024-03-24T08:38:53.058Z,72.8099
2024-03-24T08:39:57.821Z,73.1029
2024-03-24T08:41:02.695Z,73.7118
2024-03-24T08:42:07.582Z,73.9864
2024-03-24T08:43:12.368Z,73.8811
2024-03-24T08:44:17.138Z,73.7301
2024-03-24T08:45:21.954Z,73.4600
2024-03-24T08:46:26.881Z,73.3654
2024-03-24T08:47:31.691Z,73.1914
2024-03-24T08:48:42.043Z,72.9335
2024-03-24T08:49:47.174Z,72.6558
2024-03-24T08:50:52.201Z,72.4346
2024-03-24T08:51:57.067Z,72.4208
2024-03-24T08:53:01.953Z,72.3949
2024-03-24T08:54:06.755Z,72.9152
2024-03-24T08:55:11.673Z,73.6538
2024-03-24T08:56:16.516Z,73.7728
2024-03-24T08:57:21.334Z,74.0932
2024-03-24T08:58:26.180Z,74.5541
2024-03-24T08:59:30.969Z,74.8974
2024-03-24T09:00:35.747Z,74.8882
2024-03-24T09:01:41.345Z,74.9981
2024-03-24T09:02:46.265Z,75.0088
2024-03-24T09:03:51.049Z,74.8333
2024-03-24T09:04:55.945Z,74.7738
2024-03-24T09:06:00.846Z,74.7158
2024-03-24T09:07:05.656Z,74.5876
2024-03-24T09:08:10.410Z,74.5312
2024-03-24T09:09:15.250Z,74.1344
2024-03-24T09:10:20.021Z,74.2306
2024-03-24T09:11:24.805Z,73.5698
2024-03-24T09:12:29.591Z,73.0861
2024-03-24T09:13:34.356Z,72.4620
2024-03-24T09:14:39.309Z,71.7632
2024-03-24T09:15:44.247Z,71.3283
2024-03-24T09:16:49.030Z,70.8202
2024-03-24T09:17:53.865Z,69.9641
2024-03-24T09:18:58.800Z,69.1539
2024-03-24T09:20:03.580Z,69.0333
2024-03-24T09:21:08.695Z,68.6000
2024-03-24T09:22:13.503Z,68.1636
2024-03-24T09:23:18.264Z,67.8019
2024-03-24T09:24:23.074Z,67.3396
2024-03-24T09:25:27.939Z,66.4698
2024-03-24T09:26:32.733Z,65.4826
2024-03-24T09:27:37.531Z,64.7761
2024-03-24T09:28:42.519Z,63.6973
2024-03-24T09:29:47.511Z,62.7085
2024-03-24T09:30:52.437Z,62.2080
2024-03-24T09:31:57.391Z,61.8692
2024-03-24T09:33:02.196Z,61.1597
2024-03-24T09:34:06.973Z,61.2650
2024-03-24T09:35:13.553Z,61.3718
2024-03-24T09:36:18.712Z,60.7752
2024-03-24T09:37:23.535Z,60.2625
2024-03-24T09:38:30.853Z,60.8545
2024-03-24T09:39:37.534Z,61.6037
2024-03-24T09:40:42.334Z,61.3626
2024-03-24T09:41:47.143Z,61.5961
2024-03-24T09:42:52.113Z,62.8779
2024-03-24T09:43:56.883Z,63.7552
2024-03-24T09:45:01.662Z,63.8102
2024-03-24T09:46:06.452Z,62.4781
2024-03-24T09:47:11.314Z,62.1942
2024-03-24T09:48:16.284Z,62.7070
2024-03-24T09:49:21.227Z,63.1464
2024-03-24T09:50:26.000Z,63.5462
2024-03-24T09:51:30.832Z,62.0676
2024-03-24T09:52:35.762Z,60.6104
2024-03-24T09:53:40.560Z,59.3942
2024-03-24T09:54:45.411Z,59.2569
2024-03-24T09:55:50.318Z,59.2508
2024-03-24T09:56:55.108Z,58.2223
2024-03-24T09:58:07.017Z,58.1353
2024-03-24T09:59:10.727Z,58.7015
2024-03-24T10:00:15.546Z,59.1974
2024-03-24T10:01:20.347Z,59.2752
2024-03-24T10:02:25.232Z,56.7880
2024-03-24T10:03:30.003Z,55.5154
2024-03-24T10:04:34.788Z,56.0754
2024-03-24T10:05:39.714Z,55.6497
2024-03-24T10:06:44.500Z,56.9360
2024-03-24T10:07:49.322Z,57.8820
2024-03-24T10:08:54.102Z,58.7015
2024-03-24T10:09:58.996Z,59.0631
2024-03-24T10:11:03.983Z,59.3118
2024-03-24T10:12:08.743Z,59.9557
2024-03-24T10:13:13.565Z,60.9277
2024-03-24T10:14:18.515Z,61.0773
2024-03-24T10:15:23.474Z,61.0315
2024-03-24T10:16:28.485Z,60.9354
2024-03-24T10:17:33.387Z,61.3153
2024-03-24T10:18:38.373Z,61.4771
2024-03-24T10:19:43.277Z,61.9623
2024-03-24T10:20:48.055Z,61.8662
2024-03-24T10:21:52.941Z,62.1088
2024-03-24T10:22:57.843Z,62.9816
2024-03-24T10:24:02.704Z,64.3549
2024-03-24T10:25:07.491Z,65.2796
2024-03-24T10:26:12.261Z,66.1784
2024-03-24T10:27:17.091Z,66.7903
2024-03-24T10:28:22.036Z,67.6020
2024-03-24T10:29:26.967Z,68.0537
2024-03-24T10:30:31.765Z,68.6442
2024-03-24T10:31:36.597Z,69.2760
2024-03-24T10:32:41.525Z,69.5155
2024-03-24T10:33:46.316Z,69.7261
2024-03-24T10:34:51.162Z,69.5750
2024-03-24T10:35:56.111Z,68.7236
2024-03-24T10:37:00.909Z,65.9083
2024-03-24T10:38:05.711Z,64.7028
2024-03-24T10:39:10.669Z,63.6744
2024-03-24T10:40:15.424Z,64.0757
2024-03-24T10:41:20.209Z,65.1469
2024-03-24T10:42:25.041Z,63.6973
2024-03-24T10:43:29.879Z,61.7197
2024-03-24T10:44:34.664Z,61.7380
2024-03-24T10:45:39.477Z,60.7477
2024-03-24T10:46:44.431Z,61.7151
2024-03-24T10:47:49.230Z,61.4343
2024-03-24T10:48:54.046Z,60.9354
2024-03-24T10:49:58.999Z,61.6403
2024-03-24T10:51:03.794Z,60.9918
2024-03-24T10:52:08.681Z,59.5499
2024-03-24T10:53:13.446Z,58.9090
2024-03-24T10:54:18.222Z,58.7442
2024-03-24T10:55:23.154Z,57.5158
2024-03-24T10:56:28.135Z,57.3419
2024-03-24T10:57:32.917Z,56.8673
2024-03-24T10:58:37.711Z,56.0571
2024-03-24T10:59:42.675Z,58.0118
2024-03-24T11:00:47.454Z,59.4110
2024-03-24T11:01:52.290Z,60.8728
2024-03-24T11:02:57.211Z,62.5299
2024-03-24T11:04:02.014Z,63.2898
2024-03-24T11:05:06.826Z,64.8051
2024-03-24T11:06:14.769Z,66.3340
2024-03-24T11:07:20.894Z,67.7852
2024-03-24T11:08:25.810Z,69.5888
2024-03-24T11:09:30.607Z,71.2688
2024-03-24T11:10:35.461Z,72.8801
2024-03-24T11:11:40.365Z,74.1894
2024-03-24T11:12:45.140Z,75.4940
2024-03-24T11:13:50.016Z,76.6354
2024-03-24T11:14:54.943Z,77.8698
2024-03-24T11:15:59.705Z,78.7076
2024-03-24T11:17:04.596Z,78.9975
2024-03-24T11:18:09.499Z,79.0326
2024-03-24T11:19:14.282Z,78.7274
2024-03-24T11:20:19.134Z,78.5443
2024-03-24T11:21:24.086Z,77.9767
2024-03-24T11:22:28.869Z,76.7941
2024-03-24T11:23:33.707Z,76.3226
2024-03-24T11:24:38.610Z,76.4508
2024-03-24T11:25:43.452Z,76.3775
2024-03-24T11:26:48.279Z,75.5581
2024-03-24T11:27:53.242Z,75.1522
2024-03-24T11:28:58.184Z,74.7967
2024-03-24T11:30:03.179Z,74.8196
2024-03-24T11:31:08.117Z,73.7484
2024-03-24T11:32:13.131Z,72.1202
2024-03-24T11:33:18.013Z,71.8166
2024-03-24T11:34:22.956Z,71.4092
2024-03-24T11:35:27.743Z,72.2393
2024-03-24T11:36:32.650Z,73.1914
2024-03-24T11:37:37.616Z,74.2397
2024-03-24T11:38:42.403Z,73.9879
2024-03-24T11:39:47.191Z,71.8410
2024-03-24T11:40:53.486Z,70.5547
2024-03-24T11:41:58.415Z,69.9077
2024-03-24T11:43:03.378Z,68.4535
2024-03-24T11:44:08.295Z,67.3625
2024-03-24T11:45:13.278Z,66.3050
2024-03-24T11:46:18.055Z,65.1484
2024-03-24T11:47:22.898Z,64.0543
2024-03-24T11:48:27.807Z,63.4409
2024-03-24T11:49:32.595Z,63.3997
2024-03-24T11:50:37.445Z,62.6245
2024-03-24T11:51:42.384Z,61.3809
2024-03-24T11:52:49.362Z,61.7563
2024-03-24T11:53:55.817Z,61.2467
2024-03-24T11:55:00.642Z,61.1429
2024-03-24T11:56:05.441Z,61.7426
2024-03-24T11:57:10.400Z,60.9827
2024-03-24T11:58:15.225Z,59.6399
2024-03-24T11:59:19.998Z,59.5270
2024-03-24T12:00:24.962Z,59.1546
2024-03-24T12:01:29.927Z,59.3195
2024-03-24T12:02:34.876Z,59.7787
2024-03-24T12:03:39.849Z,60.0519
2024-03-24T12:04:44.742Z,60.4242
2024-03-24T12:05:49.552Z,61.0010
2024-03-24T12:06:54.418Z,61.2741
2024-03-24T12:07:59.325Z,61.8845
2024-03-24T12:09:04.133Z,61.9303
2024-03-24T12:10:08.951Z,62.1363
2024-03-24T12:11:13.842Z,61.5824
2024-03-24T12:12:18.657Z,61.2375
2024-03-24T12:13:23.519Z,60.5600
2024-03-24T12:14:28.403Z,59.5956
2024-03-24T12:15:33.221Z,59.0860
2024-03-24T12:16:38.080Z,59.5895
2024-03-24T12:17:42.994Z,59.9527
2024-03-24T12:18:47.790Z,59.9695
2024-03-24T12:19:52.541Z,59.4354
2024-03-24T12:20:57.339Z,58.8800
2024-03-24T12:22:02.237Z,56.1242
2024-03-24T12:23:07.199Z,54.6731
2024-03-24T12:24:12.097Z,54.9477
2024-03-24T12:25:16.914Z,54.4396
2024-03-24T12:26:21.742Z,55.1812
2024-03-24T12:27:26.663Z,56.3180
2024-03-24T12:28:31.608Z,55.3658
2024-03-24T12:29:36.405Z,53.6156
2024-03-24T12:30:41.216Z,53.5103
2024-03-24T12:31:46.043Z,52.6223
2024-03-24T12:32:50.881Z,52.6146
2024-03-24T12:33:55.780Z,52.7703
2024-03-24T12:35:00.575Z,54.2840
2024-03-24T12:36:05.430Z,54.7189
2024-03-24T12:37:10.365Z,55.3338
2024-03-24T12:38:15.183Z,55.7717
2024-03-24T12:39:20.005Z,56.1761
2024-03-24T12:40:24.957Z,56.4050
2024-03-24T12:41:29.923Z,56.6461
2024-03-24T12:42:34.865Z,57.1145
2024-03-24T12:43:39.841Z,57.5708
2024-03-24T12:44:44.791Z,56.5606
2024-03-24T12:45:49.767Z,56.7926
2024-03-24T12:46:54.710Z,54.6059
2024-03-24T12:47:59.506Z,53.4279
2024-03-24T12:49:04.325Z,53.0434
2024-03-24T12:50:17.641Z,53.3196
2024-03-24T12:51:19.960Z,52.8191
2024-03-24T12:52:24.776Z,52.8832
2024-03-24T12:53:29.596Z,52.5414
2024-03-24T12:54:34.491Z,51.7388
2024-03-24T12:55:39.308Z,51.5023
2024-03-24T12:56:44.139Z,52.7749
2024-03-24T12:57:49.092Z,53.7911
2024-03-24T12:58:56.242Z,54.5953
2024-03-24T13:00:02.874Z,54.6334
2024-03-24T13:01:07.640Z,54.0459
2024-03-24T13:02:12.487Z,54.0826
2024-03-24T13:03:17.339Z,53.4066
2024-03-24T13:04:22.123Z,54.4442
2024-03-24T13:05:27.026Z,53.5561